createdAt,value
2022-08-28T00:00:46.540Z,7.13
2022-08-28T00:03:15.616Z,12.18
2022-08-28T00:05:45.036Z,5.20
2022-08-28T00:08:14.491Z,5.85
2022-08-28T00:10:42.764Z,4.82
2022-08-28T00:13:15.645Z,5.72
2022-08-28T00:15:42.938Z,8.02
2022-08-28T00:18:10.121Z,7.13
2022-08-28T00:20:39.091Z,8.02
2022-08-28T00:23:07.766Z,4.93
2022-08-28T00:25:35.905Z,7.45
2022-08-28T00:28:09.067Z,8.93
2022-08-28T00:30:48.362Z,4.75
2022-08-28T00:33:23.256Z,4.45
2022-08-28T00:35:51.659Z,4.15
2022-08-28T00:38:20.391Z,7.80
2022-08-28T00:40:50.892Z,6.13
2022-08-28T00:43:38.943Z,3.72
2022-08-28T00:46:10.791Z,5.57
2022-08-28T00:48:38.960Z,4.32
2022-08-28T00:51:25.525Z,8.73
2022-08-28T00:53:58.544Z,5.13
2022-08-28T00:56:29.529Z,8.15
2022-08-28T00:59:00.692Z,5.72
2022-08-28T01:01:28.990Z,8.65
2022-08-28T01:03:55.974Z,4.65
2022-08-28T01:06:23.258Z,5.63
2022-08-28T01:08:52.938Z,6.95
2022-08-28T01:11:21.687Z,5.85
2022-08-28T01:13:51.166Z,5.45
2022-08-28T01:16:23.095Z,7.90
2022-08-28T01:18:57.471Z,7.05
2022-08-28T01:21:29.693Z,9.70
2022-08-28T01:26:29.840Z,8.65
2022-08-28T01:28:59.321Z,5.75
2022-08-28T01:31:30.173Z,5.60
2022-08-28T01:33:59.457Z,4.55
2022-08-28T01:36:27.210Z,8.60
2022-08-28T01:38:59.140Z,5.28
2022-08-28T01:41:26.254Z,4.10
2022-08-28T01:43:54.321Z,8.60
2022-08-28T01:46:21.746Z,3.08
2022-08-28T01:48:49.305Z,7.15
2022-08-28T01:51:16.254Z,7.38
2022-08-28T01:53:45.420Z,7.30
2022-08-28T01:56:16.511Z,7.65
2022-08-28T01:58:44.571Z,9.77
2022-08-28T02:01:14.133Z,7.20
2022-08-28T02:03:43.334Z,4.38
2022-08-28T02:06:11.568Z,6.65
2022-08-28T02:08:38.810Z,7.05
2022-08-28T02:11:07.530Z,7.75
2022-08-28T02:13:37.057Z,6.10
2022-08-28T02:16:07.134Z,7.07
2022-08-28T02:18:34.287Z,11.65
2022-08-28T02:21:01.447Z,5.85
2022-08-28T02:23:29.100Z,10.48
2022-08-28T02:25:56.504Z,5.80
2022-08-28T02:28:23.698Z,4.57
2022-08-28T02:30:51.092Z,8.40
2022-08-28T02:33:18.268Z,10.02
2022-08-28T02:35:45.231Z,8.82
2022-08-28T02:38:12.502Z,10.13
2022-08-28T02:40:40.252Z,3.92
2022-08-28T02:43:07.461Z,7.65
2022-08-28T02:45:35.300Z,7.50
2022-08-28T02:48:02.475Z,4.35
2022-08-28T02:50:31.212Z,4.05
2022-08-28T02:52:58.974Z,9.25
2022-08-28T02:55:26.212Z,11.65
2022-08-28T02:57:54.712Z,6.38
2022-08-28T03:00:24.911Z,10.73
2022-08-28T03:02:53.421Z,7.65
2022-08-28T03:05:23.478Z,9.13
2022-08-28T03:07:53.378Z,8.73
2022-08-28T03:10:22.309Z,9.70
2022-08-28T03:12:49.799Z,9.55
2022-08-28T03:15:18.089Z,9.38
2022-08-28T03:17:45.607Z,8.23
2022-08-28T03:20:16.250Z,8.70
2022-08-28T03:23:02.054Z,11.73
2022-08-28T03:25:29.274Z,7.70
2022-08-28T03:27:56.597Z,10.85
2022-08-28T03:30:24.126Z,13.98
2022-08-28T03:32:51.341Z,10.02
2022-08-28T03:35:18.591Z,9.57
2022-08-28T03:37:46.031Z,7.43
2022-08-28T03:40:14.688Z,7.25
2022-08-28T03:42:41.897Z,10.52
2022-08-28T03:45:10.884Z,10.48
2022-08-28T03:47:39.677Z,11.55
2022-08-28T03:50:07.936Z,10.23
2022-08-28T03:52:37.805Z,14.18
2022-08-28T03:55:08.707Z,13.25
2022-08-28T03:57:40.268Z,15.07
2022-08-28T04:00:11.619Z,14.60
2022-08-28T04:02:43.253Z,7.57
2022-08-28T04:05:11.245Z,12.10
2022-08-28T04:07:39.479Z,10.32
2022-08-28T04:10:07.448Z,11.20
2022-08-28T04:12:35.363Z,11.35
2022-08-28T04:15:05.642Z,10.15
2022-08-28T04:17:34.147Z,14.30
2022-08-28T04:20:01.389Z,14.10
2022-08-28T04:22:30.093Z,14.82
2022-08-28T04:24:57.002Z,12.57
2022-08-28T04:27:23.901Z,12.63
2022-08-28T04:29:51.049Z,10.70
2022-08-28T04:32:18.171Z,11.85
2022-08-28T04:34:45.334Z,7.75
2022-08-28T04:37:12.456Z,10.93
2022-08-28T04:39:39.538Z,15.57
2022-08-28T04:42:06.576Z,10.95
2022-08-28T04:44:33.579Z,12.18
2022-08-28T04:47:00.715Z,9.73
2022-08-28T04:49:29.450Z,10.15
2022-08-28T04:51:56.878Z,9.18
2022-08-28T04:54:24.002Z,10.75
2022-08-28T04:56:52.062Z,8.35
2022-08-28T04:59:19.102Z,16.98
2022-08-28T05:01:46.574Z,13.07
2022-08-28T05:04:14.001Z,10.32
2022-08-28T05:06:46.260Z,18.27
2022-08-28T05:09:16.416Z,13.48
2022-08-28T05:11:44.306Z,10.38
2022-08-28T05:14:15.906Z,12.45
2022-08-28T05:16:46.259Z,11.07
2022-08-28T05:19:15.129Z,14.20
2022-08-28T05:21:42.762Z,9.57
2022-08-28T05:24:10.565Z,13.30
2022-08-28T05:26:38.919Z,16.75
2022-08-28T05:29:07.687Z,12.23
2022-08-28T05:31:35.196Z,11.00
2022-08-28T05:34:03.949Z,9.90
2022-08-28T05:36:34.312Z,11.65
2022-08-28T05:39:04.063Z,14.40
2022-08-28T05:41:32.002Z,14.07
2022-08-28T05:44:01.518Z,13.65
2022-08-28T05:46:28.673Z,10.25
2022-08-28T05:48:57.663Z,12.85
2022-08-28T05:51:28.642Z,8.82
2022-08-28T05:53:57.903Z,8.80
2022-08-28T05:56:30.962Z,9.02
2022-08-28T05:59:00.383Z,9.63
2022-08-28T06:01:33.779Z,7.85
2022-08-28T06:04:10.189Z,13.48
2022-08-28T06:06:39.491Z,8.38
2022-08-28T06:09:12.593Z,9.82
2022-08-28T06:11:42.191Z,11.77
2022-08-28T06:14:15.698Z,10.30
2022-08-28T06:16:48.644Z,10.43
2022-08-28T06:21:46.789Z,10.27
2022-08-28T06:24:14.499Z,9.05
2022-08-28T06:26:41.691Z,9.65
2022-08-28T06:29:12.086Z,5.60
2022-08-28T06:31:40.246Z,10.77
2022-08-28T06:34:07.454Z,8.93
2022-08-28T06:36:37.256Z,13.90
2022-08-28T06:39:06.160Z,12.20
2022-08-28T06:41:34.355Z,11.18
2022-08-28T06:44:02.974Z,13.13
2022-08-28T06:46:30.674Z,12.75
2022-08-28T06:48:57.559Z,10.43
2022-08-28T06:51:25.035Z,11.50
2022-08-28T06:53:52.349Z,10.05
2022-08-28T06:56:25.608Z,10.43
2022-08-28T06:58:55.674Z,9.10
2022-08-28T07:01:27.142Z,9.88
2022-08-28T07:03:57.022Z,13.73
2022-08-28T07:06:24.623Z,13.32
2022-08-28T07:08:52.043Z,8.68
2022-08-28T07:11:26.272Z,6.38
2022-08-28T07:13:54.589Z,10.68
2022-08-28T07:16:24.331Z,8.70
2022-08-28T07:18:51.485Z,7.07
2022-08-28T07:21:18.719Z,11.40
2022-08-28T07:23:46.703Z,5.70
2022-08-28T07:26:16.844Z,11.85
2022-08-28T07:28:45.485Z,6.47
2022-08-28T07:31:19.183Z,14.43
2022-08-28T07:33:46.353Z,10.48
2022-08-28T07:36:29.842Z,10.02
2022-08-28T07:38:59.391Z,6.07
2022-08-28T07:41:29.714Z,12.95
2022-08-28T07:44:16.844Z,8.00
2022-08-28T07:46:44.543Z,7.97
2022-08-28T07:49:12.526Z,12.50
2022-08-28T07:51:39.551Z,12.20
2022-08-28T07:54:08.638Z,6.95
2022-08-28T07:56:45.822Z,8.40
2022-08-28T07:59:16.708Z,10.02
2022-08-28T08:01:46.542Z,9.38
2022-08-28T08:04:16.310Z,9.50
2022-08-28T08:06:44.811Z,9.70
2022-08-28T08:09:14.216Z,8.43
2022-08-28T08:11:42.156Z,10.45
2022-08-28T08:14:09.554Z,11.50
2022-08-28T08:16:40.092Z,11.70
2022-08-28T08:19:10.138Z,10.82
2022-08-28T08:21:37.844Z,8.35
2022-08-28T08:24:05.385Z,10.60
2022-08-28T08:26:33.577Z,8.38
2022-08-28T08:29:01.036Z,8.02
2022-08-28T08:31:32.521Z,4.72
2022-08-28T08:34:02.236Z,9.70
2022-08-28T08:36:30.742Z,10.45
2022-08-28T08:39:00.390Z,6.88
2022-08-28T08:41:48.775Z,10.15
2022-08-28T08:44:36.916Z,7.10
2022-08-28T08:47:22.732Z,11.93
2022-08-28T08:49:56.619Z,7.78
2022-08-28T08:52:36.974Z,8.38
2022-08-28T08:55:21.922Z,7.32
2022-08-28T08:58:11.818Z,8.18
2022-08-28T09:01:22.934Z,8.35
2022-08-28T09:04:15.734Z,8.27
2022-08-28T09:06:50.158Z,13.32
2022-08-28T09:09:33.674Z,10.43
2022-08-28T09:12:05.038Z,9.60
2022-08-28T09:14:44.872Z,6.80
2022-08-28T09:17:13.136Z,5.28
2022-08-28T09:19:40.314Z,8.38
2022-08-28T09:22:07.531Z,7.75
2022-08-28T09:24:37.007Z,12.38
2022-08-28T09:27:08.937Z,8.77
2022-08-28T09:29:47.317Z,9.50
2022-08-28T09:32:35.701Z,8.15
2022-08-28T09:35:23.865Z,7.13
2022-08-28T09:37:51.796Z,9.98
2022-08-28T09:40:51.223Z,12.63
2022-08-28T09:43:27.506Z,5.78
2022-08-28T09:46:15.287Z,5.20
2022-08-28T09:48:46.850Z,5.68
2022-08-28T09:51:29.383Z,13.85
2022-08-28T09:54:19.063Z,8.60
2022-08-28T09:56:46.234Z,6.50
2022-08-28T09:59:19.839Z,5.78
2022-08-28T10:01:50.949Z,6.05
2022-08-28T10:04:24.163Z,7.53
2022-08-28T10:07:04.051Z,5.47
2022-08-28T10:10:11.180Z,6.30
2022-08-28T10:13:06.113Z,4.85
2022-08-28T10:15:33.535Z,8.90
2022-08-28T10:18:25.086Z,5.10
2022-08-28T10:21:01.289Z,6.03
2022-08-28T10:23:28.422Z,6.32
2022-08-28T10:26:26.908Z,7.53
2022-08-28T10:29:32.492Z,5.88
2022-08-28T10:32:23.829Z,6.70
2022-08-28T10:35:12.055Z,8.27
2022-08-28T10:38:00.873Z,11.88
2022-08-28T10:41:00.041Z,7.60
2022-08-28T10:43:51.348Z,6.72
2022-08-28T10:46:28.909Z,5.25
2022-08-28T10:49:11.037Z,5.50
2022-08-28T10:51:45.969Z,6.30
2022-08-28T10:54:33.359Z,3.13
2022-08-28T10:57:10.118Z,7.05
2022-08-28T10:59:41.849Z,6.97
2022-08-28T11:02:13.648Z,5.55
2022-08-28T11:04:40.954Z,7.63
2022-08-28T11:07:15.321Z,9.00
2022-08-28T11:09:48.885Z,6.65
2022-08-28T11:12:19.934Z,7.15
2022-08-28T11:14:54.160Z,7.35
2022-08-28T11:17:33.232Z,6.72
2022-08-28T11:20:22.914Z,6.85
2022-08-28T11:22:53.278Z,8.52
2022-08-28T11:25:32.629Z,5.50
2022-08-28T11:28:39.224Z,6.53
2022-08-28T11:31:06.346Z,6.65
2022-08-28T11:33:42.748Z,6.70
2022-08-28T11:36:19.957Z,5.93
2022-08-28T11:38:55.788Z,5.90
2022-08-28T11:41:34.103Z,8.30
2022-08-28T11:44:13.201Z,6.25
2022-08-28T11:46:41.307Z,6.47
2022-08-28T11:49:47.226Z,8.90
2022-08-28T11:52:23.135Z,5.28
2022-08-28T11:55:04.714Z,8.75
2022-08-28T11:57:45.460Z,6.55
2022-08-28T12:00:32.644Z,5.00
2022-08-28T12:03:03.013Z,7.28
2022-08-28T12:05:33.585Z,6.32
2022-08-28T12:08:02.620Z,4.30
2022-08-28T12:10:30.784Z,3.45
2022-08-28T12:13:02.425Z,9.88
2022-08-28T12:15:33.355Z,6.38
2022-08-28T12:18:02.101Z,6.70
2022-08-28T12:20:54.142Z,6.15
2022-08-28T12:23:24.331Z,5.32
2022-08-28T12:26:03.167Z,9.02
2022-08-28T12:28:40.632Z,5.18
2022-08-28T12:31:08.030Z,5.88
2022-08-28T12:33:47.200Z,4.80
2022-08-28T12:36:18.030Z,6.32
2022-08-28T12:38:53.978Z,3.85
2022-08-28T12:41:24.563Z,7.82
2022-08-28T12:43:57.266Z,4.20
2022-08-28T12:46:30.623Z,3.70
2022-08-28T12:49:00.674Z,5.68
2022-08-28T12:51:31.725Z,5.05
2022-08-28T12:54:09.398Z,9.30
2022-08-28T12:56:38.546Z,5.22
2022-08-28T12:59:27.540Z,9.32
2022-08-28T13:02:01.209Z,6.45
2022-08-28T13:04:33.759Z,4.43
2022-08-28T13:07:08.351Z,5.15
2022-08-28T13:09:35.665Z,9.15
2022-08-28T13:12:03.017Z,4.15
2022-08-28T13:14:59.081Z,4.63
2022-08-28T13:17:52.439Z,5.82
2022-08-28T13:20:33.150Z,5.32
2022-08-28T13:23:00.646Z,9.32
2022-08-28T13:25:37.281Z,2.38
2022-08-28T13:28:13.095Z,3.20
2022-08-28T13:30:40.353Z,4.82
2022-08-28T13:33:16.725Z,3.53
2022-08-28T13:35:44.292Z,4.78
2022-08-28T13:38:14.176Z,5.10
2022-08-28T13:40:58.749Z,2.72
2022-08-28T13:43:41.786Z,3.70
2022-08-28T13:46:09.123Z,5.43
2022-08-28T13:48:36.034Z,2.85
2022-08-28T13:51:10.444Z,4.20
2022-08-28T13:53:38.666Z,4.95
2022-08-28T13:56:06.540Z,4.38
2022-08-28T13:58:33.817Z,5.20
2022-08-28T14:01:01.902Z,4.65
2022-08-28T14:03:39.211Z,6.13
2022-08-28T14:06:16.393Z,7.20
2022-08-28T14:08:45.241Z,2.97
2022-08-28T14:11:14.271Z,2.95
2022-08-28T14:13:55.475Z,2.92
2022-08-28T14:16:24.708Z,6.03
2022-08-28T14:18:52.958Z,2.45
2022-08-28T14:21:21.597Z,8.65
2022-08-28T14:23:48.999Z,4.57
2022-08-28T14:26:15.987Z,5.07
2022-08-28T14:28:43.140Z,4.05
2022-08-28T14:31:14.178Z,2.92
2022-08-28T14:33:45.032Z,3.05
2022-08-28T14:36:23.112Z,3.57
2022-08-28T14:38:54.018Z,6.00
2022-08-28T14:41:22.569Z,3.17
2022-08-28T14:43:50.505Z,3.10
2022-08-28T14:46:20.611Z,5.22
2022-08-28T14:48:48.535Z,3.08
2022-08-28T14:51:16.801Z,3.05
2022-08-28T14:53:44.530Z,3.47
2022-08-28T14:56:12.052Z,3.72
2022-08-28T14:58:39.531Z,4.55
2022-08-28T15:01:07.577Z,4.00
2022-08-28T15:03:35.260Z,6.93
2022-08-28T15:06:07.661Z,4.63
2022-08-28T15:08:36.835Z,2.60
2022-08-28T15:11:09.152Z,3.92
2022-08-28T15:13:36.342Z,5.70
2022-08-28T15:16:16.049Z,2.25
2022-08-28T15:18:45.699Z,4.70
2022-08-28T15:21:24.719Z,2.95
2022-08-28T15:23:53.660Z,4.38
2022-08-28T15:26:22.813Z,2.78
2022-08-28T15:28:50.773Z,3.97
2022-08-28T15:31:18.491Z,2.05
2022-08-28T15:33:45.800Z,3.97
2022-08-28T15:36:12.936Z,5.70
2022-08-28T15:38:58.460Z,5.07
2022-08-28T15:41:25.672Z,4.10
2022-08-28T15:44:02.089Z,3.65
2022-08-28T15:46:33.819Z,4.10
2022-08-28T15:49:03.197Z,5.50
2022-08-28T15:51:30.712Z,5.03
2022-08-28T15:53:57.975Z,6.10
2022-08-28T15:56:25.499Z,2.72
2022-08-28T15:58:52.742Z,5.60
2022-08-28T16:01:20.643Z,6.90
2022-08-28T16:03:48.136Z,1.70
2022-08-28T16:06:18.726Z,6.15
2022-08-28T16:08:48.161Z,12.00
2022-08-28T16:11:18.159Z,4.30
2022-08-28T16:13:45.650Z,3.55
2022-08-28T16:16:13.639Z,3.20
2022-08-28T16:18:41.151Z,3.70
2022-08-28T16:21:09.116Z,2.40
2022-08-28T16:23:36.550Z,7.20
2022-08-28T16:26:05.824Z,2.53
2022-08-28T16:28:33.358Z,3.67
2022-08-28T16:31:05.448Z,2.70
2022-08-28T16:33:35.619Z,4.75
2022-08-28T16:36:11.347Z,4.25
2022-08-28T16:38:40.451Z,4.45
2022-08-28T16:41:12.800Z,4.70
2022-08-28T16:43:40.126Z,6.38
2022-08-28T16:46:12.439Z,7.18
2022-08-28T16:48:40.108Z,4.05
2022-08-28T16:51:08.641Z,4.88
2022-08-28T16:53:35.778Z,4.07
2022-08-28T16:56:03.580Z,3.80
2022-08-28T16:58:32.015Z,3.00
2022-08-28T17:01:00.409Z,4.38
2022-08-28T17:03:27.979Z,4.47
2022-08-28T17:05:56.477Z,3.85
2022-08-28T17:08:23.849Z,2.78
2022-08-28T17:10:50.984Z,3.80
2022-08-28T17:13:17.903Z,3.08
2022-08-28T17:15:45.060Z,3.65
2022-08-28T17:18:12.374Z,4.40
2022-08-28T17:20:58.468Z,6.63
2022-08-28T17:23:26.186Z,4.22
2022-08-28T17:25:53.350Z,2.10
2022-08-28T17:28:20.890Z,2.60
2022-08-28T17:30:48.055Z,4.53
2022-08-28T17:33:15.791Z,3.97
2022-08-28T17:35:43.129Z,6.80
2022-08-28T17:38:10.184Z,4.45
2022-08-28T17:40:37.797Z,2.90
2022-08-28T17:43:04.770Z,6.03
2022-08-28T17:45:31.971Z,5.22
2022-08-28T17:47:59.019Z,2.53
2022-08-28T17:50:26.835Z,7.93
2022-08-28T17:52:54.040Z,4.15
2022-08-28T17:55:21.162Z,4.75
2022-08-28T17:57:48.192Z,4.50
2022-08-28T18:00:16.664Z,3.00
2022-08-28T18:02:44.370Z,3.22
2022-08-28T18:05:15.087Z,3.42
2022-08-28T18:07:43.043Z,4.03
2022-08-28T18:10:11.806Z,5.00
2022-08-28T18:12:41.023Z,6.40
2022-08-28T18:15:10.952Z,4.50
2022-08-28T18:17:39.286Z,3.95
2022-08-28T18:20:08.661Z,4.45
2022-08-28T18:22:39.188Z,3.13
2022-08-28T18:25:07.149Z,2.78
2022-08-28T18:27:35.124Z,3.25
2022-08-28T18:30:02.608Z,2.83
2022-08-28T18:32:29.814Z,6.95
2022-08-28T18:34:56.958Z,4.85
2022-08-28T18:37:24.019Z,4.60
2022-08-28T18:39:51.699Z,3.95
2022-08-28T18:42:21.991Z,5.28
2022-08-28T18:44:49.130Z,3.38
2022-08-28T18:47:16.364Z,2.58
2022-08-28T18:49:43.213Z,3.75
2022-08-28T18:52:10.147Z,4.30
2022-08-28T18:54:37.095Z,3.53
2022-08-28T18:57:05.680Z,2.83
2022-08-28T18:59:33.378Z,3.17
2022-08-28T19:02:00.648Z,1.80
2022-08-28T19:04:27.896Z,2.53
2022-08-28T19:06:54.891Z,3.85
2022-08-28T19:09:21.930Z,5.47
2022-08-28T19:11:49.243Z,3.92
2022-08-28T19:14:16.229Z,4.32
2022-08-28T19:16:43.384Z,2.88
2022-08-28T19:19:10.708Z,2.58
2022-08-28T19:21:38.612Z,3.33
2022-08-28T19:24:05.827Z,2.17
2022-08-28T19:26:33.704Z,2.42
2022-08-28T19:29:00.816Z,4.63
2022-08-28T19:31:28.421Z,3.28
2022-08-28T19:33:57.658Z,3.10
2022-08-28T19:36:27.499Z,4.97
2022-08-28T19:38:54.669Z,4.75
2022-08-28T19:41:22.914Z,2.28
2022-08-28T19:43:50.365Z,2.00
2022-08-28T19:46:19.414Z,2.90
2022-08-28T19:48:51.724Z,2.03
2022-08-28T19:51:22.609Z,4.00
2022-08-28T19:53:57.155Z,3.20
2022-08-28T19:56:27.624Z,3.78
2022-08-28T19:58:59.003Z,4.95
2022-08-28T20:01:30.011Z,2.30
2022-08-28T20:03:58.191Z,4.43
2022-08-28T20:06:25.902Z,2.72
2022-08-28T20:08:53.073Z,5.88
2022-08-28T20:11:25.297Z,2.63
2022-08-28T20:13:58.038Z,3.00
2022-08-28T20:16:29.071Z,3.33
2022-08-28T20:18:57.802Z,6.47
2022-08-28T20:21:28.833Z,2.75
2022-08-28T20:24:07.283Z,4.55
2022-08-28T20:26:34.698Z,4.15
2022-08-28T20:29:01.593Z,6.72
2022-08-28T20:31:28.761Z,4.65
2022-08-28T20:33:56.444Z,3.42
2022-08-28T20:36:23.977Z,3.25
2022-08-28T20:38:51.383Z,4.97
2022-08-28T20:41:20.269Z,3.38
2022-08-28T20:43:48.432Z,2.65
2022-08-28T20:46:20.351Z,6.18
2022-08-28T20:48:47.382Z,3.80
2022-08-28T20:51:14.351Z,4.22
2022-08-28T20:53:41.382Z,4.82
2022-08-28T20:56:10.478Z,2.55
2022-08-28T20:58:38.358Z,4.22
2022-08-28T21:01:05.736Z,6.15
2022-08-28T21:03:33.294Z,3.20
2022-08-28T21:06:00.275Z,7.15
2022-08-28T21:08:27.554Z,2.58
2022-08-28T21:10:54.719Z,3.33
2022-08-28T21:13:21.783Z,4.68
2022-08-28T21:15:48.894Z,4.35
2022-08-28T21:18:16.260Z,4.05
2022-08-28T21:20:43.665Z,6.63
2022-08-28T21:23:10.758Z,6.13
2022-08-28T21:25:41.179Z,1.70
2022-08-28T21:28:08.383Z,4.07
2022-08-28T21:30:35.494Z,5.15
2022-08-28T21:33:02.603Z,6.38
2022-08-28T21:35:29.852Z,3.63
2022-08-28T21:37:57.001Z,6.20
2022-08-28T21:40:24.327Z,3.42
2022-08-28T21:42:51.318Z,8.07
2022-08-28T21:45:18.431Z,6.18
2022-08-28T21:47:45.395Z,2.85
2022-08-28T21:50:12.827Z,5.78
2022-08-28T21:52:40.369Z,7.55
2022-08-28T21:55:11.147Z,4.53
2022-08-28T21:57:38.791Z,3.25
2022-08-28T22:00:14.151Z,4.32
2022-08-28T22:02:41.652Z,3.58
2022-08-28T22:05:09.190Z,3.33
2022-08-28T22:07:36.351Z,4.90
2022-08-28T22:10:04.615Z,3.25
2022-08-28T22:12:32.751Z,7.00
2022-08-28T22:15:00.078Z,4.43
2022-08-28T22:17:27.318Z,3.67
2022-08-28T22:19:55.130Z,5.47
2022-08-28T22:22:40.903Z,4.85
2022-08-28T22:25:08.162Z,4.78
2022-08-28T22:27:35.439Z,3.13
2022-08-28T22:30:02.978Z,5.65
2022-08-28T22:32:30.399Z,3.08
2022-08-28T22:34:57.533Z,7.90
2022-08-28T22:37:25.785Z,7.85
2022-08-28T22:39:52.963Z,7.35
2022-08-28T22:42:20.017Z,5.45
2022-08-28T22:44:47.306Z,4.53
2022-08-28T22:47:14.574Z,3.08
2022-08-28T22:49:41.508Z,6.15
2022-08-28T22:52:11.966Z,2.90
2022-08-28T22:54:39.260Z,5.25
2022-08-28T22:57:07.084Z,3.63
2022-08-28T22:59:35.054Z,3.97
2022-08-28T23:02:03.857Z,7.28
2022-08-28T23:04:31.493Z,4.72
2022-08-28T23:06:58.747Z,2.63
2022-08-28T23:09:25.871Z,9.02
2022-08-28T23:11:53.782Z,4.35
2022-08-28T23:14:20.704Z,5.80
2022-08-28T23:16:47.678Z,6.80
2022-08-28T23:19:16.698Z,5.40
2022-08-28T23:21:44.482Z,2.63
2022-08-28T23:24:18.906Z,6.88
2022-08-28T23:26:46.699Z,3.33
2022-08-28T23:29:14.104Z,2.65
2022-08-28T23:31:41.493Z,5.53
2022-08-28T23:34:08.767Z,3.65
2022-08-28T23:36:36.848Z,5.18
2022-08-28T23:39:07.148Z,3.85
2022-08-28T23:41:34.721Z,4.93
2022-08-28T23:44:08.295Z,9.02
2022-08-28T23:46:36.013Z,1.92
2022-08-28T23:49:04.442Z,7.03
2022-08-28T23:51:31.967Z,3.28
2022-08-28T23:53:59.179Z,2.38
2022-08-28T23:56:28.217Z,1.88
2022-08-28T23:58:55.417Z,2.95
